Kaiser — NHJK — position and weather

sailwx.info

Track history (hours):
 
Tides and Currents Weather Stations Pressure Air Temp Water Temp Dewpoint Dewpoint Depression Visibility Wind Speed Wind Dir Waves Ship Positions

Kaiser

Last reported at 2015-Jul-31 18:33 UTC. Time now 2015-Jul-31 19:29 UTC.
Position N 32°01' W 117°49'.

Length 207 m; draft 8.5 m.

Type: Tanker. MMSI: 303849000.

Date/timePositionNaut miles runAvg speedWind from/ knotsBaromVisibWave heightAir tempDewpointWater temp
2015-Jul-31 18:33N 32°01' W 117°49'1010.1
2015-Jul-31 17:33N 31°51' W 117°52'1010.3
2015-Jul-31 16:33N 31°41' W 117°54'1010.4
2015-Jul-31 15:33N 31°31' W 117°57'2612.3
2015-Jul-31 13:26N 31°06' W 117°48'1212.9
2015-Jul-31 12:32N 30°55' W 117°42'30 5.8
2015-Jul-31 07:20N 31°25' W 117°36'16 8.0
2015-Jul-31 05:21N 31°41' W 117°36'9 8.0
2015-Jul-31 04:16N 31°49' W 117°36'14 7.9
2015-Jul-31 02:33N 32°03' W 117°37'23 7.5
2015-Jul-30 23:33N 32°25' W 117°38'8 7.9
2015-Jul-30 22:33N 32°33' W 117°39'7 6.7
2015-Jul-30 21:33N 32°36' W 117°46'7 7.4
2015-Jul-30 20:33N 32°36' W 117°55'7 7.4
2015-Jul-30 19:33N 32°36' W 118°04'10 9.9
2015-Jul-30 18:33N 32°36' W 118°16'1313.5
2015-Jul-30 17:33N 32°36' W 118°32'9 8.7
2015-Jul-30 16:33N 32°37' W 118°42'5 4.6
2015-Jul-30 15:34N 32°37' W 118°36'1312.9
2015-Jul-30 14:34N 32°36' W 118°52'1312.9
2015-Jul-30 13:34N 32°36' W 119°07'2 1.9
2015-Jul-30 12:31N 32°36' W 119°09'11 9.4
2015-Jul-30 11:23N 32°36' W 118°57'1 1.3
2015-Jul-30 10:33N 32°36' W 118°58'3 2.9
2015-Jul-30 09:34N 32°36' W 118°55'7 6.9
2015-Jul-30 08:34N 32°36' W 118°47'7 6.8
2015-Jul-30 07:34N 32°36' W 118°38'7 6.6
2015-Jul-30 06:33N 32°36' W 118°31'2 2.1
2015-Jul-30 05:30N 32°36' W 118°33'7 7.5
2015-Jul-30 04:33N 32°36' W 118°42'7 7.4
2015-Jul-30 03:34N 32°36' W 118°50'7 7.3
2015-Jul-30 02:33N 32°36' W 118°59'5 4.8
2015-Jul-30 01:33N 32°36' W 118°53'7 6.6
2015-Jul-30 00:34N 32°37' W 118°46'1010.3
2015-Jul-29 23:33N 32°36' W 118°33'1211.7
2015-Jul-29 22:33N 32°36' W 118°19'2 1.8
2015-Jul-29 21:26N 32°36' W 118°22'1213.6
2015-Jul-29 20:33N 32°36' W 118°36'1313.2
2015-Jul-29 19:33N 32°36' W 118°52'1212.1
2015-Jul-29 18:32N 32°36' W 119°06'4 4.1
2015-Jul-29 17:30N 32°36' W 119°01'9 9.7
2015-Jul-29 16:33N 32°36' W 118°50'1010.0
2015-Jul-29 15:33N 32°38' W 118°39'1312.8
2015-Jul-29 14:33N 32°37' W 118°24'1312.9
2015-Jul-29 13:33N 32°36' W 118°08'1111.1
2015-Jul-29 12:33N 32°36' W 117°55'8 7.8
2015-Jul-29 11:33N 32°36' W 117°46'6 6.3
2015-Jul-29 10:33N 32°36' W 117°53'7 6.5
2015-Jul-29 09:33N 32°36' W 118°01'7 6.7
2015-Jul-29 08:32N 32°36' W 118°09'4 3.6
2015-Jul-29 07:34N 32°36' W 118°13'6 6.3
2015-Jul-29 06:34N 32°36' W 118°06'6 6.2
2015-Jul-29 05:33N 32°36' W 117°59'6 6.5
2015-Jul-29 04:33N 32°36' W 118°06'7 7.0
2015-Jul-29 03:33N 32°36' W 118°15'7 7.2
2015-Jul-29 02:34N 32°36' W 118°23'7 7.2
2015-Jul-29 01:33N 32°36' W 118°32'3 3.2
2015-Jul-29 00:33N 32°37' W 118°28'1212.2
2015-Jul-28 23:34N 32°36' W 118°14'1313.0
2015-Jul-28 22:33N 32°36' W 117°58'1717.2
2015-Jul-28 21:33N 32°36' W 117°38'1717.3
2015-Jul-28 20:33N 32°36' W 117°17'6 6.2
2015-Jul-28 19:31N 32°42' W 117°14'0 0.0
2015-Jul-28 18:22N 32°42' W 117°14'0 0.0
2015-Jul-28 17:10N 32°42' W 117°14'0 0.0
2015-Jul-28 15:22N 32°42' W 117°14'0 0.0
2015-Jul-28 11:07N 32°42' W 117°14'0 0.0
2015-Jul-28 10:31N 32°42' W 117°14'0 0.0
2015-Jul-28 09:25N 32°42' W 117°14'0 0.0
2015-Jul-28 08:31N 32°42' W 117°14'0 0.0
2015-Jul-28 07:31N 32°42' W 117°14'0 0.0
2015-Jul-28 06:28N 32°42' W 117°14'0 0.0
2015-Jul-28 05:31N 32°42' W 117°14'0 0.0
2015-Jul-28 04:31N 32°42' W 117°14'0 0.0
2015-Jul-28 03:31N 32°42' W 117°14'0 0.0
2015-Jul-28 02:25N 32°42' W 117°14'0 0.0
2015-Jul-28 01:25N 32°42' W 117°14'0 0.0
2015-Jul-28 00:28N 32°42' W 117°14'0 0.0
2015-Jul-27 23:31N 32°42' W 117°14'0 0.0
2015-Jul-27 22:25N 32°42' W 117°14'0 0.0
2015-Jul-27 21:31N 32°42' W 117°14'3 2.7
2015-Jul-27 20:34N 32°43' W 117°11'1 0.7
2015-Jul-27 19:33N 32°42' W 117°11'0 0.0
2015-Jul-27 18:33N 32°42' W 117°11'0 0.0
2015-Jul-27 17:33N 32°42' W 117°11'0 0.0
2015-Jul-27 16:33N 32°42' W 117°11'0 0.0
2015-Jul-27 15:33N 32°42' W 117°11'0 0.0
2015-Jul-27 14:33N 32°42' W 117°11'0 0.0
2015-Jul-27 13:33N 32°42' W 117°11'0 0.0
2015-Jul-27 12:33N 32°42' W 117°11'0 0.0
2015-Jul-27 11:33N 32°42' W 117°11'0 0.0
2015-Jul-27 10:33N 32°42' W 117°11'0 0.0
2015-Jul-27 09:30N 32°42' W 117°11'0 0.0
2015-Jul-27 08:33N 32°42' W 117°11'0 0.0
2015-Jul-27 07:33N 32°42' W 117°11'0 0.0
2015-Jul-27 06:33N 32°42' W 117°11'0 0.0
2015-Jul-27 05:33N 32°42' W 117°11'0 0.0
2015-Jul-27 04:33N 32°42' W 117°11'0 0.0
2015-Jul-27 03:33N 32°42' W 117°11'0 0.0
2015-Jul-27 02:33N 32°42' W 117°11'0 0.0
2015-Jul-27 01:33N 32°42' W 117°11'0 0.0
2015-Jul-27 00:33N 32°42' W 117°11'0 0.1
2015-Jul-26 23:33N 32°42' W 117°11'0 0.1
2015-Jul-26 22:33N 32°42' W 117°11'0 0.0
2015-Jul-26 21:33N 32°42' W 117°11'0 0.1
2015-Jul-26 20:33N 32°42' W 117°11'0 0.1
2015-Jul-26 19:33N 32°42' W 117°11'0 0.0
2015-Jul-26 18:33N 32°42' W 117°11'0 0.0
2015-Jul-26 17:33N 32°42' W 117°11'0 0.0
2015-Jul-26 16:33N 32°42' W 117°11'0 0.0
2015-Jul-26 15:33N 32°42' W 117°11'0 0.0
2015-Jul-26 14:33N 32°42' W 117°11'0 0.0
2015-Jul-26 13:33N 32°42' W 117°11'0 0.0
2015-Jul-26 12:33N 32°42' W 117°11'0 0.0
2015-Jul-26 11:33N 32°42' W 117°11'0 0.0
2015-Jul-26 10:33N 32°42' W 117°11'0 0.0
2015-Jul-26 09:33N 32°42' W 117°11'0 0.0
2015-Jul-26 08:33N 32°42' W 117°11'0 0.0
2015-Jul-26 07:30N 32°42' W 117°11'0 0.0
2015-Jul-26 06:33N 32°42' W 117°11'0 0.0
2015-Jul-26 05:33N 32°42' W 117°11'0 0.0
2015-Jul-26 04:33N 32°42' W 117°11'0 0.0
2015-Jul-26 03:33N 32°42' W 117°11'0 0.0
2015-Jul-26 02:33N 32°42' W 117°11'0 0.0
2015-Jul-26 01:33N 32°42' W 117°11'0 0.0
2015-Jul-26 00:33N 32°42' W 117°11'0 0.0
2015-Jul-25 23:33N 32°42' W 117°11'0 0.0
2015-Jul-25 22:33N 32°42' W 117°11'0 0.0
2015-Jul-25 21:33N 32°42' W 117°11'0 0.1
2015-Jul-25 20:33N 32°42' W 117°11'0 0.1
2015-Jul-25 19:33N 32°42' W 117°11'0 0.0
2015-Jul-25 18:33N 32°42' W 117°11'0 0.0
2015-Jul-25 17:33N 32°42' W 117°11'0 0.0
2015-Jul-25 16:33N 32°42' W 117°11'0 0.0
2015-Jul-25 15:33N 32°42' W 117°11'0 0.0
2015-Jul-25 14:33N 32°42' W 117°11'0 0.0
2015-Jul-25 13:33N 32°42' W 117°11'0 0.0
2015-Jul-25 12:33N 32°42' W 117°11'0 0.0
2015-Jul-25 11:33N 32°42' W 117°11'0 0.0
2015-Jul-25 10:33N 32°42' W 117°11'0 0.0
2015-Jul-25 09:33N 32°42' W 117°11'0 0.0
2015-Jul-25 08:33N 32°42' W 117°11'0 0.0
2015-Jul-25 07:33N 32°42' W 117°11'0 0.0
2015-Jul-25 06:33N 32°42' W 117°11'0 0.0
2015-Jul-25 05:33N 32°42' W 117°11'0 0.0
2015-Jul-25 04:33N 32°42' W 117°11'0 0.0
2015-Jul-25 03:33N 32°42' W 117°11'0 0.0
2015-Jul-25 02:33N 32°42' W 117°11'0 0.0
2015-Jul-25 01:33N 32°42' W 117°11'0 0.0
2015-Jul-25 00:33N 32°42' W 117°11'0 0.0
2015-Jul-24 23:33N 32°42' W 117°11'0 0.3
2015-Jul-24 22:33N 32°43' W 117°11'7 6.5
2015-Jul-24 21:33N 32°36' W 117°13'1111.3
2015-Jul-24 20:33N 32°35' W 117°26'1312.7
2015-Jul-24 19:33N 32°36' W 117°42'1514.7
2015-Jul-24 18:34N 32°36' W 117°59'1615.5
2015-Jul-24 17:30N 32°36' W 118°18'1515.2
2015-Jul-24 16:33N 32°36' W 118°35'1313.2
2015-Jul-24 15:33N 32°36' W 118°51'1313.0
2015-Jul-24 14:33N 32°36' W 119°07'4 4.2
2015-Jul-24 13:33N 32°36' W 119°12'1111.2
2015-Jul-24 12:33N 32°36' W 118°58'4 3.6
2015-Jul-24 11:29N 32°36' W 118°54'2 1.9
2015-Jul-24 10:33N 32°36' W 118°56'7 6.5
2015-Jul-24 09:32N 32°36' W 118°48'6 6.5
2015-Jul-24 08:33N 32°37' W 118°40'7 6.8
2015-Jul-24 07:33N 32°36' W 118°32'7 6.7
2015-Jul-24 06:33N 32°36' W 118°24'1 1.3
2015-Jul-24 05:33N 32°36' W 118°26'6 6.4
2015-Jul-24 04:33N 32°36' W 118°33'6 6.4
2015-Jul-24 03:33N 32°36' W 118°41'7 6.4
2015-Jul-24 02:31N 32°36' W 118°49'6 6.6
2015-Jul-24 01:33N 32°36' W 118°56'7 6.6
2015-Jul-24 00:33N 32°36' W 119°04'7 5.2
2015-Jul-23 23:13N 32°37' W 118°56'912.9
2015-Jul-23 22:33N 32°36' W 118°46'1312.7
2015-Jul-23 21:33N 32°36' W 118°31'1312.6
2015-Jul-23 20:33N 32°36' W 118°16'1212.2
2015-Jul-23 19:33N 32°36' W 118°01'9 8.8
2015-Jul-23 18:33N 32°36' W 118°12'1212.1
2015-Jul-23 17:33N 32°36' W 118°26'9 1.0
2015-Jul-23 09:04N 32°37' W 118°37'3 4.9
2015-Jul-23 08:24N 32°36' W 118°40'5 1.0
2015-Jul-23 03:33N 32°36' W 118°35'2 0.2
2015-Jul-22 16:15N 32°37' W 118°32'912.3
2015-Jul-22 15:33N 32°36' W 118°22'1212.2
2015-Jul-22 14:33N 32°36' W 118°08'1211.7
2015-Jul-22 13:33N 32°37' W 117°54'8 8.1
2015-Jul-22 12:33N 32°37' W 117°44'1 0.8
2015-Jul-22 11:33N 32°37' W 117°44'2 2.3
2015-Jul-22 10:33N 32°36' W 117°47'9 9.1
2015-Jul-22 09:32N 32°36' W 117°58'9 9.3
2015-Jul-22 08:33N 32°36' W 118°08'3 2.6
2015-Jul-22 07:33N 32°36' W 118°11'8 8.3
2015-Jul-22 06:33N 32°36' W 118°02'8 8.3
2015-Jul-22 05:34N 32°36' W 117°52'9 9.3
2015-Jul-22 04:33N 32°36' W 117°41'7 7.0
2015-Jul-22 03:33N 32°37' W 117°49'9 8.6
2015-Jul-22 02:34N 32°36' W 117°59'9 9.0
2015-Jul-22 01:33N 32°36' W 118°10'1010.2
2015-Jul-22 00:33N 32°36' W 118°22'10 5.1
2015-Jul-21 22:32N 32°36' W 118°34'1212.4
2015-Jul-21 21:33N 32°36' W 118°20'1212.1
2015-Jul-21 20:33N 32°36' W 118°05'1312.6
2015-Jul-21 19:33N 32°36' W 117°50'  
Track history (hours):
 
Tides and Currents Weather Stations Pressure Air Temp Water Temp Dewpoint Dewpoint Depression Visibility Wind Speed Wind Dir Waves Ship Positions

Kaiser

Last reported at 2015-Jul-31 18:33 UTC. Time now 2015-Jul-31 19:29 UTC.
Position N 32°01' W 117°49'.

Length 207 m; draft 8.5 m.

Type: Tanker. MMSI: 303849000.

Date/timePositionNaut miles runAvg speedWind from/ knotsBaromVisibWave heightAir tempDewpointWater temp
2015-Jul-31 18:33N 32°01' W 117°49'1010.1
2015-Jul-31 17:33N 31°51' W 117°52'1010.3
2015-Jul-31 16:33N 31°41' W 117°54'1010.4
2015-Jul-31 15:33N 31°31' W 117°57'2612.3
2015-Jul-31 13:26N 31°06' W 117°48'1212.9
2015-Jul-31 12:32N 30°55' W 117°42'30 5.8
2015-Jul-31 07:20N 31°25' W 117°36'16 8.0
2015-Jul-31 05:21N 31°41' W 117°36'9 8.0
2015-Jul-31 04:16N 31°49' W 117°36'14 7.9
2015-Jul-31 02:33N 32°03' W 117°37'23 7.5
2015-Jul-30 23:33N 32°25' W 117°38'8 7.9
2015-Jul-30 22:33N 32°33' W 117°39'7 6.7
2015-Jul-30 21:33N 32°36' W 117°46'7 7.4
2015-Jul-30 20:33N 32°36' W 117°55'7 7.4
2015-Jul-30 19:33N 32°36' W 118°04'10 9.9
2015-Jul-30 18:33N 32°36' W 118°16'1313.5
2015-Jul-30 17:33N 32°36' W 118°32'9 8.7
2015-Jul-30 16:33N 32°37' W 118°42'5 4.6
2015-Jul-30 15:34N 32°37' W 118°36'1312.9
2015-Jul-30 14:34N 32°36' W 118°52'1312.9
2015-Jul-30 13:34N 32°36' W 119°07'2 1.9
2015-Jul-30 12:31N 32°36' W 119°09'11 9.4
2015-Jul-30 11:23N 32°36' W 118°57'1 1.3
2015-Jul-30 10:33N 32°36' W 118°58'3 2.9
2015-Jul-30 09:34N 32°36' W 118°55'7 6.9
2015-Jul-30 08:34N 32°36' W 118°47'7 6.8
2015-Jul-30 07:34N 32°36' W 118°38'7 6.6
2015-Jul-30 06:33N 32°36' W 118°31'2 2.1
2015-Jul-30 05:30N 32°36' W 118°33'7 7.5
2015-Jul-30 04:33N 32°36' W 118°42'7 7.4
2015-Jul-30 03:34N 32°36' W 118°50'7 7.3
2015-Jul-30 02:33N 32°36' W 118°59'5 4.8
2015-Jul-30 01:33N 32°36' W 118°53'7 6.6
2015-Jul-30 00:34N 32°37' W 118°46'1010.3
2015-Jul-29 23:33N 32°36' W 118°33'1211.7
2015-Jul-29 22:33N 32°36' W 118°19'2 1.8
2015-Jul-29 21:26N 32°36' W 118°22'1213.6
2015-Jul-29 20:33N 32°36' W 118°36'1313.2
2015-Jul-29 19:33N 32°36' W 118°52'1212.1
2015-Jul-29 18:32N 32°36' W 119°06'4 4.1
2015-Jul-29 17:30N 32°36' W 119°01'9 9.7
2015-Jul-29 16:33N 32°36' W 118°50'1010.0
2015-Jul-29 15:33N 32°38' W 118°39'1312.8
2015-Jul-29 14:33N 32°37' W 118°24'1312.9
2015-Jul-29 13:33N 32°36' W 118°08'1111.1
2015-Jul-29 12:33N 32°36' W 117°55'8 7.8
2015-Jul-29 11:33N 32°36' W 117°46'6 6.3
2015-Jul-29 10:33N 32°36' W 117°53'7 6.5
2015-Jul-29 09:33N 32°36' W 118°01'7 6.7
2015-Jul-29 08:32N 32°36' W 118°09'4 3.6
2015-Jul-29 07:34N 32°36' W 118°13'6 6.3
2015-Jul-29 06:34N 32°36' W 118°06'6 6.2
2015-Jul-29 05:33N 32°36' W 117°59'6 6.5
2015-Jul-29 04:33N 32°36' W 118°06'7 7.0
2015-Jul-29 03:33N 32°36' W 118°15'7 7.2
2015-Jul-29 02:34N 32°36' W 118°23'7 7.2
2015-Jul-29 01:33N 32°36' W 118°32'3 3.2
2015-Jul-29 00:33N 32°37' W 118°28'1212.2
2015-Jul-28 23:34N 32°36' W 118°14'1313.0
2015-Jul-28 22:33N 32°36' W 117°58'1717.2
2015-Jul-28 21:33N 32°36' W 117°38'1717.3
2015-Jul-28 20:33N 32°36' W 117°17'6 6.2
2015-Jul-28 19:31N 32°42' W 117°14'0 0.0
2015-Jul-28 18:22N 32°42' W 117°14'0 0.0
2015-Jul-28 17:10N 32°42' W 117°14'0 0.0
2015-Jul-28 15:22N 32°42' W 117°14'0 0.0
2015-Jul-28 11:07N 32°42' W 117°14'0 0.0
2015-Jul-28 10:31N 32°42' W 117°14'0 0.0
2015-Jul-28 09:25N 32°42' W 117°14'0 0.0
2015-Jul-28 08:31N 32°42' W 117°14'0 0.0
2015-Jul-28 07:31N 32°42' W 117°14'0 0.0
2015-Jul-28 06:28N 32°42' W 117°14'0 0.0
2015-Jul-28 05:31N 32°42' W 117°14'0 0.0
2015-Jul-28 04:31N 32°42' W 117°14'0 0.0
2015-Jul-28 03:31N 32°42' W 117°14'0 0.0
2015-Jul-28 02:25N 32°42' W 117°14'0 0.0
2015-Jul-28 01:25N 32°42' W 117°14'0 0.0
2015-Jul-28 00:28N 32°42' W 117°14'0 0.0
2015-Jul-27 23:31N 32°42' W 117°14'0 0.0
2015-Jul-27 22:25N 32°42' W 117°14'0 0.0
2015-Jul-27 21:31N 32°42' W 117°14'3 2.7
2015-Jul-27 20:34N 32°43' W 117°11'1 0.7
2015-Jul-27 19:33N 32°42' W 117°11'0 0.0
2015-Jul-27 18:33N 32°42' W 117°11'0 0.0
2015-Jul-27 17:33N 32°42' W 117°11'0 0.0
2015-Jul-27 16:33N 32°42' W 117°11'0 0.0
2015-Jul-27 15:33N 32°42' W 117°11'0 0.0
2015-Jul-27 14:33N 32°42' W 117°11'0 0.0
2015-Jul-27 13:33N 32°42' W 117°11'0 0.0
2015-Jul-27 12:33N 32°42' W 117°11'0 0.0
2015-Jul-27 11:33N 32°42' W 117°11'0 0.0
2015-Jul-27 10:33N 32°42' W 117°11'0 0.0
2015-Jul-27 09:30N 32°42' W 117°11'0 0.0
2015-Jul-27 08:33N 32°42' W 117°11'0 0.0
2015-Jul-27 07:33N 32°42' W 117°11'0 0.0
2015-Jul-27 06:33N 32°42' W 117°11'0 0.0
2015-Jul-27 05:33N 32°42' W 117°11'0 0.0
2015-Jul-27 04:33N 32°42' W 117°11'0 0.0
2015-Jul-27 03:33N 32°42' W 117°11'0 0.0
2015-Jul-27 02:33N 32°42' W 117°11'0 0.0
2015-Jul-27 01:33N 32°42' W 117°11'0 0.0
2015-Jul-27 00:33N 32°42' W 117°11'0 0.1
2015-Jul-26 23:33N 32°42' W 117°11'0 0.1
2015-Jul-26 22:33N 32°42' W 117°11'0 0.0
2015-Jul-26 21:33N 32°42' W 117°11'0 0.1
2015-Jul-26 20:33N 32°42' W 117°11'0 0.1
2015-Jul-26 19:33N 32°42' W 117°11'0 0.0
2015-Jul-26 18:33N 32°42' W 117°11'0 0.0
2015-Jul-26 17:33N 32°42' W 117°11'0 0.0
2015-Jul-26 16:33N 32°42' W 117°11'0 0.0
2015-Jul-26 15:33N 32°42' W 117°11'0 0.0
2015-Jul-26 14:33N 32°42' W 117°11'0 0.0
2015-Jul-26 13:33N 32°42' W 117°11'0 0.0
2015-Jul-26 12:33N 32°42' W 117°11'0 0.0
2015-Jul-26 11:33N 32°42' W 117°11'0 0.0
2015-Jul-26 10:33N 32°42' W 117°11'0 0.0
2015-Jul-26 09:33N 32°42' W 117°11'0 0.0
2015-Jul-26 08:33N 32°42' W 117°11'0 0.0
2015-Jul-26 07:30N 32°42' W 117°11'0 0.0
2015-Jul-26 06:33N 32°42' W 117°11'0 0.0
2015-Jul-26 05:33N 32°42' W 117°11'0 0.0
2015-Jul-26 04:33N 32°42' W 117°11'0 0.0
2015-Jul-26 03:33N 32°42' W 117°11'0 0.0
2015-Jul-26 02:33N 32°42' W 117°11'0 0.0
2015-Jul-26 01:33N 32°42' W 117°11'0 0.0
2015-Jul-26 00:33N 32°42' W 117°11'0 0.0
2015-Jul-25 23:33N 32°42' W 117°11'0 0.0
2015-Jul-25 22:33N 32°42' W 117°11'0 0.0
2015-Jul-25 21:33N 32°42' W 117°11'0 0.1
2015-Jul-25 20:33N 32°42' W 117°11'0 0.1
2015-Jul-25 19:33N 32°42' W 117°11'0 0.0
2015-Jul-25 18:33N 32°42' W 117°11'0 0.0
2015-Jul-25 17:33N 32°42' W 117°11'0 0.0
2015-Jul-25 16:33N 32°42' W 117°11'0 0.0
2015-Jul-25 15:33N 32°42' W 117°11'0 0.0
2015-Jul-25 14:33N 32°42' W 117°11'0 0.0
2015-Jul-25 13:33N 32°42' W 117°11'0 0.0
2015-Jul-25 12:33N 32°42' W 117°11'0 0.0
2015-Jul-25 11:33N 32°42' W 117°11'0 0.0
2015-Jul-25 10:33N 32°42' W 117°11'0 0.0
2015-Jul-25 09:33N 32°42' W 117°11'0 0.0
2015-Jul-25 08:33N 32°42' W 117°11'0 0.0
2015-Jul-25 07:33N 32°42' W 117°11'0 0.0
2015-Jul-25 06:33N 32°42' W 117°11'0 0.0
2015-Jul-25 05:33N 32°42' W 117°11'0 0.0
2015-Jul-25 04:33N 32°42' W 117°11'0 0.0
2015-Jul-25 03:33N 32°42' W 117°11'0 0.0
2015-Jul-25 02:33N 32°42' W 117°11'0 0.0
2015-Jul-25 01:33N 32°42' W 117°11'0 0.0
2015-Jul-25 00:33N 32°42' W 117°11'0 0.0
2015-Jul-24 23:33N 32°42' W 117°11'0 0.3
2015-Jul-24 22:33N 32°43' W 117°11'7 6.5
2015-Jul-24 21:33N 32°36' W 117°13'1111.3
2015-Jul-24 20:33N 32°35' W 117°26'1312.7
2015-Jul-24 19:33N 32°36' W 117°42'1514.7
2015-Jul-24 18:34N 32°36' W 117°59'1615.5
2015-Jul-24 17:30N 32°36' W 118°18'1515.2
2015-Jul-24 16:33N 32°36' W 118°35'1313.2
2015-Jul-24 15:33N 32°36' W 118°51'1313.0
2015-Jul-24 14:33N 32°36' W 119°07'4 4.2
2015-Jul-24 13:33N 32°36' W 119°12'1111.2
2015-Jul-24 12:33N 32°36' W 118°58'4 3.6
2015-Jul-24 11:29N 32°36' W 118°54'2 1.9
2015-Jul-24 10:33N 32°36' W 118°56'7 6.5
2015-Jul-24 09:32N 32°36' W 118°48'6 6.5
2015-Jul-24 08:33N 32°37' W 118°40'7 6.8
2015-Jul-24 07:33N 32°36' W 118°32'7 6.7
2015-Jul-24 06:33N 32°36' W 118°24'1 1.3
2015-Jul-24 05:33N 32°36' W 118°26'6 6.4
2015-Jul-24 04:33N 32°36' W 118°33'6 6.4
2015-Jul-24 03:33N 32°36' W 118°41'7 6.4
2015-Jul-24 02:31N 32°36' W 118°49'6 6.6
2015-Jul-24 01:33N 32°36' W 118°56'7 6.6
2015-Jul-24 00:33N 32°36' W 119°04'7 5.2
2015-Jul-23 23:13N 32°37' W 118°56'912.9
2015-Jul-23 22:33N 32°36' W 118°46'1312.7
2015-Jul-23 21:33N 32°36' W 118°31'1312.6
2015-Jul-23 20:33N 32°36' W 118°16'1212.2
2015-Jul-23 19:33N 32°36' W 118°01'9 8.8
2015-Jul-23 18:33N 32°36' W 118°12'1212.1
2015-Jul-23 17:33N 32°36' W 118°26'9 1.0
2015-Jul-23 09:04N 32°37' W 118°37'3 4.9
2015-Jul-23 08:24N 32°36' W 118°40'5 1.0
2015-Jul-23 03:33N 32°36' W 118°35'2 0.2
2015-Jul-22 16:15N 32°37' W 118°32'912.3
2015-Jul-22 15:33N 32°36' W 118°22'1212.2
2015-Jul-22 14:33N 32°36' W 118°08'1211.7
2015-Jul-22 13:33N 32°37' W 117°54'8 8.1
2015-Jul-22 12:33N 32°37' W 117°44'1 0.8
2015-Jul-22 11:33N 32°37' W 117°44'2 2.3
2015-Jul-22 10:33N 32°36' W 117°47'9 9.1
2015-Jul-22 09:32N 32°36' W 117°58'9 9.3
2015-Jul-22 08:33N 32°36' W 118°08'3 2.6
2015-Jul-22 07:33N 32°36' W 118°11'8 8.3
2015-Jul-22 06:33N 32°36' W 118°02'8 8.3
2015-Jul-22 05:34N 32°36' W 117°52'9 9.3
2015-Jul-22 04:33N 32°36' W 117°41'7 7.0
2015-Jul-22 03:33N 32°37' W 117°49'9 8.6
2015-Jul-22 02:34N 32°36' W 117°59'9 9.0
2015-Jul-22 01:33N 32°36' W 118°10'1010.2
2015-Jul-22 00:33N 32°36' W 118°22'10 5.1
2015-Jul-21 22:32N 32°36' W 118°34'1212.4
2015-Jul-21 21:33N 32°36' W 118°20'1212.1
2015-Jul-21 20:33N 32°36' W 118°05'1312.6
2015-Jul-21 19:33N 32°36' W 117°50'  

Dump ship's entire track history